createdAt,value
2017-07-22T00:12:34.000Z,21.9
2017-07-22T00:29:23.000Z,22.2
2017-07-22T00:46:12.000Z,21.9
2017-07-22T01:03:01.000Z,21.9
2017-07-22T01:19:50.000Z,21.9
2017-07-22T01:36:39.000Z,21.6
2017-07-22T01:53:29.000Z,21.9
2017-07-22T02:10:17.000Z,21.9
2017-07-22T02:27:06.000Z,21.6
2017-07-22T02:40:34.000Z,22.2
2017-07-22T02:57:23.000Z,22.6
2017-07-22T03:14:14.000Z,22.6
2017-07-22T03:31:03.000Z,22.6
2017-07-22T03:47:53.000Z,22.2
2017-07-22T04:04:43.000Z,22.6
2017-07-22T04:21:32.000Z,22.6
2017-07-22T04:38:22.000Z,22.6
2017-07-22T04:55:13.000Z,22.6
2017-07-22T05:12:02.000Z,22.2
2017-07-22T05:42:19.000Z,21.9
2017-07-22T05:59:08.000Z,22.2
2017-07-22T06:15:57.000Z,21.9
2017-07-22T06:32:46.000Z,22.2
2017-07-22T06:49:36.000Z,22.9
2017-07-22T07:06:27.000Z,23.2
2017-07-22T07:23:18.000Z,23.5
2017-07-22T07:40:09.000Z,23.8
2017-07-22T07:57:01.000Z,24.2
2017-07-22T08:13:53.000Z,24.2
2017-07-22T08:30:45.000Z,24.5
2017-07-22T08:47:37.000Z,24.5
2017-07-22T09:04:30.000Z,24.8
2017-07-22T09:21:22.000Z,24.8
2017-07-22T09:38:15.000Z,25.1
2017-07-22T09:55:07.000Z,25.1
2017-07-22T10:12:01.000Z,25.1
2017-07-22T10:28:54.000Z,25.1
2017-07-22T10:45:47.000Z,25.4
2017-07-22T11:02:40.000Z,25.4
2017-07-22T11:11:07.000Z,25.4
2017-07-22T11:28:00.000Z,25.8
2017-07-22T11:44:54.000Z,25.8
2017-07-22T11:56:44.000Z,26.1
2017-07-22T12:13:38.000Z,26.1
2017-07-22T12:30:32.000Z,26.4
2017-07-22T12:47:27.000Z,26.4
2017-07-22T13:04:22.000Z,26.7
2017-07-22T13:21:16.000Z,26.7
2017-07-22T13:38:11.000Z,26.7
2017-07-22T13:55:06.000Z,26.7
2017-07-22T14:12:01.000Z,27
2017-07-22T14:28:57.000Z,27
2017-07-22T14:45:52.000Z,27
2017-07-22T15:02:48.000Z,27
2017-07-22T15:19:43.000Z,27
2017-07-22T15:36:38.000Z,27
2017-07-22T15:53:33.000Z,27
2017-07-22T16:10:29.000Z,26.7
2017-07-22T16:27:23.000Z,27
2017-07-22T16:44:19.000Z,26.7
2017-07-22T16:57:51.000Z,26.4
2017-07-22T17:07:59.000Z,26.4
2017-07-22T17:23:13.000Z,26.1
2017-07-22T17:40:07.000Z,26.1
2017-07-22T17:57:01.000Z,26.1
2017-07-22T18:13:56.000Z,25.8
2017-07-22T18:30:50.000Z,25.8
2017-07-22T18:47:43.000Z,25.4
2017-07-22T19:04:37.000Z,25.1
2017-07-22T19:21:30.000Z,25.1
2017-07-22T19:38:23.000Z,24.8
2017-07-22T19:55:16.000Z,24.8
2017-07-22T20:12:09.000Z,24.5
2017-07-22T20:29:02.000Z,24.5
2017-07-22T20:44:14.000Z,24.2
2017-07-22T21:01:06.000Z,24.2
2017-07-22T21:17:57.000Z,24.2
2017-07-22T21:34:48.000Z,23.8
2017-07-22T21:51:40.000Z,24.2
2017-07-22T22:08:32.000Z,24.2
2017-07-22T22:25:23.000Z,23.8
2017-07-22T22:42:14.000Z,23.8
2017-07-22T22:59:06.000Z,23.8
2017-07-22T23:15:57.000Z,23.5
2017-07-22T23:32:47.000Z,23.2
2017-07-22T23:49:37.000Z,22.9
